CEH2 weather

Cu Nim Airport
Black Diamond, Alberta, Canada

Public forecast

Using degrees Celsius for public forecast. Weather courtesy of forecast.io.

METAR (pilot weather report)

Closest report is Calgary / Springbank Airport, 24.0 nm (44.5 km) NNW. Retrieved 2019/06/17 11:00 UTC (16 minutes ago):

CYBW 171100Z AUTO 34003KT 9SM CLR 04/03 A3005 RMK SLP187

TAF (pilot weather forecast)

Forecast is more than 12 hours old.

Closest forecast is Calgary / Springbank Airport, 24.0 nm (44.5 km) NNW. Retrieved 2019/06/16 00:00 UTC (1 day ago):

TAF CYBW 162338Z 1700/1704 06008KT P6SM FEW070 BECMG 1700/1702 VRB03KT RMK FCST BASED ON AUTO OBS. NXT FCST WILL BE ISSUED AT 171145Z